Terminal Aerodrome Forecast
Issued by NWS

Home | Current Version | Previous Version | Graphics & Text | Print | Product List | Glossary On
Versions: 1 2 3 4 5 6 7 8 9 10 11 12 13 14 15
000
FTUS43 KICT 210300 AAA
TAFRSL
TAF AMD
KRSL 210311Z 2103/2124 17012KT P6SM SCT050 BKN100
      TEMPO 2104/2107 -TSRA BKN050CB
     FM210900 23018KT P6SM SCT030 BKN100
     FM211400 01014G21KT P6SM VCSH BKN070
     FM211700 01017G25KT P6SM SCT070=

USA.gov is the U.S. government's official web portal to all federal, state and local government web resources and services.